Bryson City, NC

10:13 EST le 04 Mars 2015 (GMT -0500)
Andrews | Change Station
CLOSE
Current Station
Aéroport
Location: Andrews,
Altitude: 1696 ft
Stations météo à proximité

Alt. 1696 ft 35.20 °N, 83.86 °W | Updated 38 minutes ago

Nuageux
Nuageux
62 ° F
Paraît 62 ° F
N
9
Vent Variable Vent de OSO
Gusts 17 mph

Aujourd'hui
Haut(e) -- | Bas -- ° F
--% Risque de précip.
Hier
Haut(e) -- | Bas -- ° F
Precip. -- pouce
6:59 AM 6:31 PM
Lune gibbeuse croissante, 99% visible
Pression 30.01 pouce
Visibilité 10.0 Miles terrestres
Nuages Couvert 1200 ft
Point de rosée 59 ° F
Humidité 91%
Précipitations 0.00 pouce
Profondeur de la couche neigeuse Non disponible.
UV 1 sur 12
Pollen .60 sur 12
Qualité de l'air Non disponible.
Flu Activity Non disponible.
METAR KRHP 041435Z AUTO 24008G15KT 10SM OVC012 17/15 A3001 RMK AO2 T01660151

More Conditions Fewer Conditions

Pression 30.01 pouce
Visibilité 10.0 Miles terrestres
Nuages Couvert 1200 ft
Point de rosée 59 ° F
Humidité 91%
Précipitations 0.00 pouce
Profondeur de la couche neigeuse Non disponible.
UV 1 sur 12
Pollen .60 sur 12
Qualité de l'air Non disponible.
Flu Activity Non disponible.
METAR KRHP 041435Z AUTO 24008G15KT 10SM OVC012 17/15 A3001 RMK AO2 T01660151

More Conditions Fewer Conditions

10-Day Weather Forecast

Almanac

Astronomie

Mar. 04, 2015 Lever Coucher
Temps réel
Crépuscule civil
Crépuscule nautique
Crépuscule astronomique
Lune
Durée de lumière visible
Longueur du jour
Tomorrow will be .
, % of the Moon is Illuminated

Extrêmes aujourd'hui

State Highs State Lows

Community

WunderPhotos

Upload Photos

1,802,487 Photos téléchargées !

WunderBlogs® & News

Nearby

Qualité de l'air

  Qualité de l'air Indice de la qualité de l'air Polluant
Not available.

Épaisseur de neige

Station Depth Altitude

Activité sismique

Ville Distance Mag. Time & Date
Minimum magnitude displayed is 2.5.

Températures des eaux côtières

Lieu Température

Stations météo à proximité